Time;durP1;ratioP1;P1;durP2;ratioP2;P2;SDS_P1;SDS_P2;PMS_P1;PMS_P2;Temp;Humidity;BMP_temperature;BMP_pressure;BME280_temperature;BME280_humidity;BME280_pressure;Samples;Min_cycle;Max_cycle;Signal;HPM_P1;HPM_P2
2024/01/01 00:03:32;;;;;;;79.28;75.15;;;7.60;99.90;;;;;;12372358;28;20054;-35
2024/01/01 00:09:34;;;;;;;83.43;78.93;;;7.60;99.90;;;;;;12372702;28;20073;-34
2024/01/01 00:15:36;;;;;;;84.43;79.95;;;7.60;99.90;;;;;;12372037;28;20458;-35
2024/01/01 00:21:38;;;;;;;90.85;86.15;;;7.70;99.90;;;;;;12380559;28;20050;-35
2024/01/01 00:27:40;;;;;;;93.18;88.15;;;7.60;99.90;;;;;;12379602;28;20046;-35
2024/01/01 00:33:42;;;;;;;97.18;91.88;;;7.50;99.90;;;;;;12384943;28;20515;-34
2024/01/01 00:39:44;;;;;;;95.68;90.63;;;7.50;99.90;;;;;;12368840;28;20081;-35
2024/01/01 00:45:46;;;;;;;104.53;98.53;;;7.50;99.90;;;;;;12393109;28;20058;-35
2024/01/01 00:51:51;;;;;;;103.93;98.20;;;7.40;99.90;;;;;;12390217;28;20047;-35
2024/01/01 00:57:53;;;;;;;103.47;97.10;;;7.30;99.90;;;;;;12368995;28;20069;-35
2024/01/01 01:03:54;;;;;;;105.93;99.85;;;7.30;99.90;;;;;;12376102;28;20050;-35
2024/01/01 01:09:57;;;;;;;104.80;99.10;;;7.30;99.90;;;;;;12370767;28;20070;-35
2024/01/01 01:15:59;;;;;;;106.03;100.07;;;7.30;99.90;;;;;;12376590;28;20518;-35
2024/01/01 01:22:00;;;;;;;99.18;93.32;;;7.30;99.90;;;;;;12372461;28;20054;-35
2024/01/01 01:28:03;;;;;;;97.82;92.63;;;7.40;99.90;;;;;;12366729;28;20681;-35
2024/01/01 01:34:06;;;;;;;91.80;86.88;;;7.40;99.90;;;;;;12376742;28;20498;-35
2024/01/01 01:40:08;;;;;;;89.30;84.57;;;7.50;99.90;;;;;;12370457;28;20050;-35
2024/01/01 01:46:11;;;;;;;96.70;91.47;;;7.50;99.90;;;;;;12367603;28;20070;-34
2024/01/01 01:52:15;;;;;;;94.43;89.53;;;7.40;99.90;;;;;;12360180;28;20055;-35
2024/01/01 01:58:17;;;;;;;91.30;86.32;;;7.40;99.90;;;;;;12360900;28;20053;-35
2024/01/01 02:04:19;;;;;;;88.60;83.70;;;7.30;99.90;;;;;;12372677;28;20057;-35
2024/01/01 02:10:21;;;;;;;81.72;77.28;;;7.40;99.90;;;;;;12389642;28;20050;-35
2024/01/01 02:16:23;;;;;;;82.95;78.60;;;7.50;99.90;;;;;;12361091;28;20039;-35
2024/01/01 02:22:25;;;;;;;78.78;74.25;;;7.50;99.90;;;;;;12405722;28;20054;-35
2024/01/01 02:28:27;;;;;;;79.47;74.90;;;7.70;99.90;;;;;;12371065;28;20473;-35
2024/01/01 02:34:28;;;;;;;76.55;72.43;;;7.60;99.90;;;;;;12382058;28;20062;-35
2024/01/01 02:40:35;;;;;;;73.53;69.50;;;7.60;99.90;;;;;;12393089;28;20050;-35
2024/01/01 02:46:36;;;;;;;72.55;68.47;;;7.70;99.90;;;;;;12404648;28;20046;-35
2024/01/01 02:52:38;;;;;;;76.40;72.30;;;7.70;99.90;;;;;;12376636;28;20402;-35
2024/01/01 02:58:40;;;;;;;69.25;65.18;;;7.70;99.90;;;;;;12380648;28;20061;-35
2024/01/01 03:04:42;;;;;;;66.03;61.88;;;7.70;99.90;;;;;;12370769;28;20074;-34
2024/01/01 03:10:44;;;;;;;70.78;66.70;;;7.70;99.90;;;;;;12366192;28;20058;-35
2024/01/01 03:16:46;;;;;;;66.10;62.40;;;7.70;99.90;;;;;;12371837;28;20047;-35
2024/01/01 03:22:48;;;;;;;61.97;58.05;;;7.70;99.90;;;;;;12378676;28;20439;-36
2024/01/01 03:28:50;;;;;;;56.90;53.22;;;7.80;99.90;;;;;;12368380;28;20050;-35
2024/01/01 03:34:52;;;;;;;55.85;52.45;;;7.80;99.90;;;;;;12371806;28;20071;-35
2024/01/01 03:40:54;;;;;;;52.72;49.83;;;7.80;99.90;;;;;;12363946;28;20062;-35
2024/01/01 03:46:56;;;;;;;52.88;49.65;;;7.80;99.90;;;;;;12365635;28;20526;-35
2024/01/01 03:52:58;;;;;;;48.08;45.22;;;7.70;99.90;;;;;;12380077;28;20054;-35
2024/01/01 03:59:00;;;;;;;52.10;48.65;;;7.60;99.90;;;;;;12424438;28;20134;-35
2024/01/01 04:05:02;;;;;;;49.80;46.97;;;7.60;99.90;;;;;;12381125;28;20046;-35
2024/01/01 04:11:04;;;;;;;53.10;50.13;;;7.60;99.90;;;;;;12375769;28;20061;-35
2024/01/01 04:17:06;;;;;;;50.83;47.50;;;7.60;99.90;;;;;;12364673;28;20134;-35
2024/01/01 04:23:08;;;;;;;44.58;41.72;;;7.60;99.90;;;;;;12369239;28;20047;-35
2024/01/01 04:29:12;;;;;;;51.45;48.75;;;7.70;99.90;;;;;;12419909;28;20063;-35
2024/01/01 04:35:14;;;;;;;78.57;74.53;;;7.60;99.90;;;;;;12362527;28;20051;-35
2024/01/01 04:41:16;;;;;;;88.40;83.88;;;7.40;99.90;;;;;;12372064;28;20055;-35
2024/01/01 04:47:18;;;;;;;93.55;88.47;;;7.00;99.90;;;;;;12380846;28;20055;-35
2024/01/01 04:53:20;;;;;;;96.97;91.72;;;6.70;99.90;;;;;;12374003;28;20042;-35
2024/01/01 04:59:22;;;;;;;91.15;86.25;;;6.60;99.90;;;;;;12376616;28;20046;-35
2024/01/01 05:05:24;;;;;;;91.68;86.57;;;6.40;99.90;;;;;;12375923;28;20141;-35
2024/01/01 05:11:26;;;;;;;92.20;87.20;;;6.30;99.90;;;;;;12371731;28;20073;-35
2024/01/01 05:17:27;;;;;;;88.97;84.28;;;6.40;99.90;;;;;;12366625;28;20422;-34
2024/01/01 05:23:29;;;;;;;89.40;84.60;;;6.40;99.90;;;;;;12369498;28;20102;-35
2024/01/01 05:29:31;;;;;;;92.55;87.75;;;6.40;99.90;;;;;;12414330;28;20400;-35
2024/01/01 05:35:34;;;;;;;97.10;91.88;;;6.40;99.90;;;;;;12367748;28;20051;-35
2024/01/01 05:41:36;;;;;;;96.15;90.68;;;6.30;99.90;;;;;;12371010;28;20055;-35
2024/01/01 05:47:38;;;;;;;92.45;87.18;;;6.20;99.90;;;;;;12359965;28;20421;-35
2024/01/01 05:53:40;;;;;;;94.47;89.35;;;6.10;99.90;;;;;;12374317;28;20046;-35
2024/01/01 05:59:41;;;;;;;97.05;91.85;;;6.10;99.90;;;;;;12374247;28;20077;-35
2024/01/01 06:05:43;;;;;;;97.25;92.05;;;6.10;99.90;;;;;;12371969;28;20050;-35
2024/01/01 06:11:45;;;;;;;100.05;94.45;;;6.10;99.90;;;;;;12368054;28;20402;-35
2024/01/01 06:17:52;;;;;;;98.90;92.97;;;6.20;99.90;;;;;;12370615;28;20046;-35
2024/01/01 06:23:55;;;;;;;96.88;91.43;;;6.20;99.90;;;;;;12373630;28;20498;-35
2024/01/01 06:29:58;;;;;;;97.75;92.53;;;6.30;99.90;;;;;;12383055;28;20069;-35
2024/01/01 06:36:00;;;;;;;105.43;99.40;;;6.30;99.90;;;;;;12365719;28;20407;-35
2024/01/01 06:42:02;;;;;;;100.50;94.80;;;6.30;99.90;;;;;;12364509;28;20084;-35
2024/01/01 06:48:04;;;;;;;104.32;98.40;;;6.30;99.90;;;;;;12363444;28;20236;-35
2024/01/01 06:54:07;;;;;;;101.13;95.43;;;6.40;99.90;;;;;;12365523;28;21093;-35
2024/01/01 07:00:10;;;;;;;98.82;93.28;;;6.40;99.90;;;;;;12360333;28;20059;-35
2024/01/01 07:06:12;;;;;;;108.88;102.72;;;6.40;99.90;;;;;;12362799;28;20050;-35
2024/01/01 07:12:21;;;;;;;103.57;97.45;;;6.40;99.90;;;;;;12414982;23;20051;-81
2024/01/01 07:18:23;;;;;;;104.18;98.30;;;6.40;99.90;;;;;;12420010;28;20070;-81
2024/01/01 07:24:25;;;;;;;107.40;101.38;;;6.30;99.90;;;;;;12424120;28;20166;-87
2024/01/01 07:30:27;;;;;;;102.38;96.80;;;6.20;99.90;;;;;;12390616;28;20046;-88
2024/01/01 07:36:30;;;;;;;101.88;95.95;;;6.20;99.90;;;;;;12415867;28;20137;-86
2024/01/01 07:42:32;;;;;;;106.97;100.45;;;6.20;99.90;;;;;;12383294;28;20091;-87
2024/01/01 07:48:34;;;;;;;104.90;98.70;;;6.30;99.90;;;;;;12389926;28;20073;-85
2024/01/01 07:54:38;;;;;;;103.65;97.63;;;6.30;99.90;;;;;;12379168;28;20043;-87
2024/01/01 08:00:40;;;;;;;101.90;96.15;;;6.40;99.90;;;;;;12392877;28;20042;-84
2024/01/01 08:06:42;;;;;;;101.82;96.03;;;6.60;99.90;;;;;;12395739;28;20126;-86
2024/01/01 08:12:44;;;;;;;104.15;98.57;;;6.60;99.90;;;;;;12368455;28;20051;-85
2024/01/01 08:18:47;;;;;;;106.57;100.43;;;6.60;99.90;;;;;;12370423;28;20047;-87
2024/01/01 08:24:50;;;;;;;109.93;103.83;;;6.60;99.90;;;;;;12351771;28;20057;-86
2024/01/01 08:30:52;;;;;;;106.63;100.65;;;6.60;99.90;;;;;;12336112;28;20074;-87
2024/01/01 08:36:54;;;;;;;107.45;100.65;;;6.60;99.90;;;;;;12334796;28;20043;-85
2024/01/01 08:42:56;;;;;;;106.35;100.18;;;6.60;99.90;;;;;;12355890;28;20059;-85
2024/01/01 08:48:58;;;;;;;103.93;97.57;;;6.70;99.90;;;;;;12380167;28;20062;-85
2024/01/01 08:55:00;;;;;;;108.57;102.40;;;6.70;99.90;;;;;;12398832;28;20050;-85
2024/01/01 09:01:02;;;;;;;106.97;100.47;;;6.80;99.90;;;;;;12389281;28;20070;-86
2024/01/01 09:07:04;;;;;;;104.32;98.47;;;6.90;99.90;;;;;;12359693;28;20065;-87
2024/01/01 09:13:07;;;;;;;109.10;102.57;;;6.90;99.90;;;;;;12393280;28;20330;-88
2024/01/01 09:19:09;;;;;;;106.07;99.65;;;6.90;99.90;;;;;;12347891;28;20177;-86
2024/01/01 09:25:11;;;;;;;99.53;94.03;;;6.90;99.90;;;;;;12346796;28;20074;-88
2024/01/01 09:31:13;;;;;;;100.28;94.88;;;6.90;99.90;;;;;;12350161;28;20064;-88
2024/01/01 09:37:14;;;;;;;106.93;100.93;;;7.00;99.90;;;;;;12357399;28;20096;-89
2024/01/01 09:43:17;;;;;;;107.90;101.80;;;7.00;99.90;;;;;;12352679;28;20042;-86
2024/01/01 09:49:20;;;;;;;110.25;104.13;;;6.90;99.90;;;;;;12349781;28;20149;-85
2024/01/01 09:55:21;;;;;;;112.15;106.15;;;6.90;99.90;;;;;;12360997;28;20182;-84
2024/01/01 10:01:23;;;;;;;108.00;102.30;;;6.90;99.90;;;;;;12379882;28;20414;-84
2024/01/01 10:07:26;;;;;;;112.45;106.35;;;7.00;99.90;;;;;;12382781;28;20054;-85
2024/01/01 10:13:28;;;;;;;113.03;106.78;;;7.00;99.90;;;;;;12358196;28;20066;-86
2024/01/01 10:19:56;;;;;;;113.07;106.80;;;6.90;99.90;;;;;;12345739;28;20055;-84
2024/01/01 10:26:12;;;;;;;110.45;104.25;;;6.90;99.90;;;;;;12358211;28;20138;-85
2024/01/01 10:32:16;;;;;;;108.93;103.00;;;6.90;99.90;;;;;;12358976;28;20073;-85
2024/01/01 10:38:20;;;;;;;114.43;108.20;;;6.80;99.90;;;;;;12345732;28;20050;-85
2024/01/01 10:44:22;;;;;;;110.35;104.35;;;6.90;99.90;;;;;;12350193;28;20047;-85
2024/01/01 10:50:31;;;;;;;113.20;106.45;;;6.80;99.90;;;;;;12353110;28;20119;-85
2024/01/01 10:57:06;;;;;;;109.68;103.57;;;6.90;99.90;;;;;;12361083;28;20039;-85
2024/01/01 11:03:13;;;;;;;108.68;102.78;;;7.10;99.90;;;;;;12368686;28;20049;-86
2024/01/01 11:09:19;;;;;;;108.00;101.90;;;7.10;99.90;;;;;;12350544;28;20059;-86
2024/01/01 11:15:44;;;;;;;106.47;100.68;;;7.10;99.90;;;;;;12350999;28;20047;-84
2024/01/01 11:21:45;;;;;;;108.72;102.40;;;7.10;99.90;;;;;;12362590;28;20051;-85
2024/01/01 11:27:47;;;;;;;109.35;103.35;;;7.10;99.90;;;;;;12348581;28;20050;-85
2024/01/01 11:34:05;;;;;;;108.10;102.15;;;7.20;99.90;;;;;;12349144;28;20501;-84
2024/01/01 11:40:27;;;;;;;97.55;91.90;;;7.20;99.90;;;;;;12386746;28;20054;-85
2024/01/01 11:46:29;;;;;;;104.68;98.93;;;7.20;99.90;;;;;;12353372;28;20058;-84
2024/01/01 11:52:31;;;;;;;98.15;92.68;;;7.20;99.90;;;;;;12391987;28;20136;-85
2024/01/01 11:58:34;;;;;;;103.75;98.05;;;7.40;99.90;;;;;;12374619;28;20058;-85
2024/01/01 12:04:36;;;;;;;111.57;105.38;;;7.50;99.90;;;;;;12353140;28;20054;-87
2024/01/01 12:10:38;;;;;;;120.35;113.95;;;7.40;99.90;;;;;;12355269;28;20069;-88
2024/01/01 12:16:42;;;;;;;113.93;107.65;;;7.20;99.90;;;;;;12377839;28;20063;-88
2024/01/01 12:22:48;;;;;;;118.60;111.78;;;7.20;99.90;;;;;;12354745;28;20044;-87
2024/01/01 12:29:23;;;;;;;129.52;122.13;;;7.00;99.90;;;;;;12374967;28;20075;-87
2024/01/01 12:35:25;;;;;;;125.93;118.75;;;6.90;99.90;;;;;;12383558;28;20065;-88
2024/01/01 12:41:28;;;;;;;124.03;117.22;;;6.80;99.90;;;;;;12371324;28;20085;-86
2024/01/01 12:47:30;;;;;;;119.28;112.38;;;6.70;99.90;;;;;;12351436;28;20062;-85
2024/01/01 12:53:32;;;;;;;111.65;105.25;;;6.80;99.90;;;;;;12361482;28;20046;-86
2024/01/01 12:59:34;;;;;;;110.25;104.00;;;6.60;99.90;;;;;;12357919;28;20135;-86
2024/01/01 13:05:36;;;;;;;109.50;103.00;;;6.60;99.90;;;;;;12352813;28;20397;-86
2024/01/01 13:11:39;;;;;;;117.00;110.15;;;6.80;99.90;;;;;;12366063;28;20059;-85
2024/01/01 13:17:40;;;;;;;123.32;116.13;;;6.80;99.90;;;;;;12363037;28;20043;-83
2024/01/01 13:23:45;;;;;;;131.15;123.53;;;6.80;99.90;;;;;;12349866;28;20058;-82
2024/01/01 13:29:48;;;;;;;131.05;123.45;;;6.80;99.90;;;;;;12359940;28;20053;-83
2024/01/01 13:35:50;;;;;;;112.93;106.38;;;6.80;99.90;;;;;;12350879;28;20484;-82
2024/01/01 13:41:51;;;;;;;125.32;118.20;;;6.70;99.90;;;;;;12374691;28;20303;-83
2024/01/01 13:47:53;;;;;;;123.20;115.78;;;6.70;99.90;;;;;;12403201;23;20414;-35
2024/01/01 13:53:55;;;;;;;136.88;128.98;;;6.60;99.90;;;;;;12374288;28;20055;-35
2024/01/01 13:59:57;;;;;;;131.48;124.18;;;6.60;99.90;;;;;;12374390;28;20050;-35
2024/01/01 14:05:59;;;;;;;128.02;120.63;;;6.50;99.90;;;;;;12369403;28;20055;-35
2024/01/01 14:12:03;;;;;;;119.47;112.72;;;6.50;99.90;;;;;;12364760;28;20059;-35
2024/01/01 14:18:06;;;;;;;129.30;122.03;;;6.50;99.90;;;;;;12369496;28;20050;-35
2024/01/01 14:24:09;;;;;;;124.80;117.88;;;6.70;99.90;;;;;;12371889;28;20102;-35
2024/01/01 14:30:12;;;;;;;114.18;107.57;;;6.80;99.90;;;;;;12368879;28;20077;-35
2024/01/01 14:36:17;;;;;;;120.50;113.80;;;6.70;99.90;;;;;;12368058;28;20065;-35
2024/01/01 14:42:20;;;;;;;122.60;115.80;;;6.70;99.90;;;;;;12369980;28;20054;-35
2024/01/01 14:48:22;;;;;;;121.38;114.57;;;6.70;99.90;;;;;;12381300;28;20057;-35
2024/01/01 14:54:24;;;;;;;126.47;119.30;;;6.60;99.90;;;;;;12369500;28;20045;-35
2024/01/01 15:00:26;;;;;;;128.65;121.35;;;6.70;99.90;;;;;;12373625;28;20442;-35
2024/01/01 15:06:28;;;;;;;129.15;121.90;;;6.70;99.90;;;;;;12372227;28;20100;-35
2024/01/01 15:12:30;;;;;;;123.80;116.65;;;6.70;99.90;;;;;;12356254;28;20085;-35
2024/01/01 15:18:32;;;;;;;127.13;119.53;;;6.80;99.90;;;;;;12389027;28;20051;-35
2024/01/01 15:24:34;;;;;;;118.40;111.90;;;6.70;99.90;;;;;;12369499;28;20057;-35
2024/01/01 15:30:36;;;;;;;114.68;108.47;;;6.80;99.90;;;;;;12351763;28;20502;-35
2024/01/01 15:36:41;;;;;;;121.15;114.65;;;6.70;99.90;;;;;;12363396;28;20038;-34
2024/01/01 15:42:43;;;;;;;110.97;104.80;;;6.50;99.90;;;;;;12362263;28;20057;-34
2024/01/01 15:48:45;;;;;;;108.25;102.20;;;6.50;99.90;;;;;;12350263;28;20093;-34
2024/01/01 15:54:47;;;;;;;105.18;99.28;;;6.40;99.90;;;;;;12377272;28;20067;-34
2024/01/01 16:00:49;;;;;;;112.10;105.70;;;6.40;99.90;;;;;;12377511;28;20506;-34
2024/01/01 16:06:51;;;;;;;127.30;120.13;;;6.30;99.90;;;;;;12378050;28;21026;-34
2024/01/01 16:12:53;;;;;;;134.23;126.35;;;6.30;99.90;;;;;;12388665;28;20061;-34
2024/01/01 16:18:56;;;;;;;115.25;108.95;;;6.20;99.90;;;;;;12375853;28;20073;-34
2024/01/01 16:25:03;;;;;;;116.47;109.90;;;6.30;99.90;;;;;;12363757;28;20055;-35
2024/01/01 16:31:05;;;;;;;104.55;98.60;;;6.20;99.90;;;;;;12377930;28;20054;-34
2024/01/01 16:37:07;;;;;;;102.50;97.15;;;6.20;99.90;;;;;;12364094;28;20078;-34
2024/01/01 16:43:09;;;;;;;106.95;100.97;;;6.20;99.90;;;;;;12364272;28;20043;-36
2024/01/01 16:49:11;;;;;;;119.78;112.78;;;6.10;99.90;;;;;;12370342;28;20090;-34
2024/01/01 16:55:13;;;;;;;116.43;110.13;;;5.90;99.90;;;;;;12365309;28;20085;-34
2024/01/01 17:01:22;;;;;;;120.35;113.45;;;5.80;99.90;;;;;;12369006;28;20081;-34
2024/01/01 17:07:24;;;;;;;98.40;93.10;;;5.80;99.90;;;;;;12377494;28;20137;-34
2024/01/01 17:13:26;;;;;;;109.65;103.80;;;6.00;99.90;;;;;;12381010;28;20530;-34
2024/01/01 17:19:28;;;;;;;77.60;73.60;;;5.70;99.90;;;;;;12367397;28;20078;-34
2024/01/01 17:25:30;;;;;;;95.47;90.30;;;5.80;99.90;;;;;;12372368;28;20129;-34
2024/01/01 17:31:32;;;;;;;116.15;109.85;;;5.60;99.90;;;;;;12374134;28;20054;-34
2024/01/01 17:37:34;;;;;;;113.45;107.07;;;5.40;99.90;;;;;;12369786;28;20188;-35
2024/01/01 17:43:36;;;;;;;111.00;104.90;;;5.30;99.90;;;;;;12377835;28;20054;-34
2024/01/01 17:49:38;;;;;;;107.38;101.40;;;5.30;99.90;;;;;;12375220;28;20050;-34
2024/01/01 17:55:40;;;;;;;106.15;100.35;;;5.30;99.90;;;;;;12364729;28;20082;-34
2024/01/01 18:01:42;;;;;;;114.88;108.57;;;5.30;99.90;;;;;;12381115;28;20501;-34
2024/01/01 18:07:44;;;;;;;115.05;108.25;;;5.30;99.90;;;;;;12372836;28;20405;-34
2024/01/01 18:13:47;;;;;;;115.25;108.72;;;5.30;99.90;;;;;;12379495;28;20046;-34
2024/01/01 18:19:50;;;;;;;117.22;110.53;;;5.30;99.90;;;;;;12377579;28;20094;-34
2024/01/01 18:25:52;;;;;;;117.13;110.03;;;5.30;99.90;;;;;;12368729;28;20049;-34
2024/01/01 18:31:54;;;;;;;113.15;106.38;;;5.20;99.90;;;;;;12369844;28;20055;-34
2024/01/01 18:37:56;;;;;;;109.85;103.53;;;5.20;99.90;;;;;;12370334;28;20138;-35
2024/01/01 18:43:58;;;;;;;112.95;106.15;;;5.20;99.90;;;;;;12359602;28;20055;-35
2024/01/01 18:50:00;;;;;;;114.53;107.75;;;5.20;99.90;;;;;;12383654;28;20069;-34
2024/01/01 18:56:05;;;;;;;115.05;108.30;;;5.30;99.90;;;;;;12365638;28;20648;-35
2024/01/01 19:02:07;;;;;;;110.20;103.78;;;5.30;99.90;;;;;;12368103;28;20068;-35
2024/01/01 19:08:09;;;;;;;110.90;104.05;;;5.40;99.90;;;;;;12381491;28;20061;-35
2024/01/01 19:14:12;;;;;;;117.20;109.65;;;5.50;99.90;;;;;;12361527;28;20051;-34
2024/01/01 19:20:15;;;;;;;114.25;107.32;;;5.50;99.90;;;;;;12374475;28;20081;-35
2024/01/01 19:26:17;;;;;;;114.72;107.72;;;5.50;99.90;;;;;;12366446;28;20070;-35
2024/01/01 19:32:19;;;;;;;115.75;108.55;;;5.50;99.90;;;;;;12368814;28;20055;-35
2024/01/01 19:38:21;;;;;;;118.90;111.63;;;5.60;99.90;;;;;;12368230;28;20076;-34
2024/01/01 19:44:23;;;;;;;120.05;112.55;;;5.60;99.90;;;;;;12359040;28;20051;-34
2024/01/01 19:50:24;;;;;;;124.47;115.97;;;5.50;99.90;;;;;;12368789;28;20534;-34
2024/01/01 19:56:26;;;;;;;117.20;109.78;;;5.40;99.90;;;;;;12378290;28;20145;-35
2024/01/01 20:02:29;;;;;;;120.88;113.57;;;5.40;99.90;;;;;;12372735;28;20051;-35
2024/01/01 20:08:31;;;;;;;126.97;118.97;;;5.50;99.90;;;;;;12372537;28;20051;-35
2024/01/01 20:14:41;;;;;;;123.28;115.88;;;5.40;99.90;;;;;;12376172;28;20066;-34
2024/01/01 20:20:43;;;;;;;125.95;118.13;;;5.40;99.90;;;;;;12380979;28;20096;-34
2024/01/01 20:26:45;;;;;;;119.43;112.20;;;5.40;99.90;;;;;;12374888;28;20050;-34
2024/01/01 20:32:47;;;;;;;120.20;112.47;;;5.40;99.90;;;;;;12364947;28;20047;-35
2024/01/01 20:38:50;;;;;;;121.30;113.75;;;5.40;99.90;;;;;;12377085;28;20046;-34
2024/01/01 20:44:52;;;;;;;121.38;113.90;;;5.50;99.90;;;;;;12375552;28;20050;-34
2024/01/01 20:50:53;;;;;;;128.15;120.55;;;5.60;99.90;;;;;;12379331;28;20529;-34
2024/01/01 20:56:55;;;;;;;125.05;117.38;;;5.60;99.90;;;;;;12366559;28;20042;-35
2024/01/01 21:02:59;;;;;;;128.32;119.70;;;5.70;99.90;;;;;;12365590;28;20084;-35
2024/01/01 21:09:02;;;;;;;134.83;126.70;;;5.70;99.90;;;;;;12383471;28;20474;-35
2024/01/01 21:15:04;;;;;;;135.57;127.47;;;5.70;99.90;;;;;;12372083;28;20074;-35
2024/01/01 21:21:06;;;;;;;130.77;122.82;;;5.60;99.90;;;;;;12378796;28;20506;-35
2024/01/01 21:27:07;;;;;;;130.73;122.75;;;5.60;99.90;;;;;;12380082;28;20050;-35
2024/01/01 21:33:09;;;;;;;133.40;125.30;;;5.60;99.90;;;;;;12373910;28;20058;-35
2024/01/01 21:39:12;;;;;;;134.25;126.10;;;5.50;99.90;;;;;;12356216;28;20125;-35
2024/01/01 21:45:14;;;;;;;137.10;128.82;;;5.40;99.90;;;;;;12386747;28;20054;-35
2024/01/01 21:51:16;;;;;;;137.35;128.68;;;5.40;99.90;;;;;;12373116;28;20536;-35
2024/01/01 21:57:17;;;;;;;137.70;129.50;;;5.20;99.90;;;;;;12361770;28;20057;-35
2024/01/01 22:03:19;;;;;;;135.48;127.38;;;5.20;99.90;;;;;;12369956;28;20413;-35
2024/01/01 22:09:21;;;;;;;131.63;123.60;;;5.10;99.90;;;;;;12374399;28;20090;-34
2024/01/01 22:15:23;;;;;;;133.10;125.03;;;5.10;99.90;;;;;;12358453;28;20418;-34
2024/01/01 22:21:25;;;;;;;128.95;121.05;;;5.20;99.90;;;;;;12369756;28;20175;-35
2024/01/01 22:27:27;;;;;;;130.70;122.75;;;5.20;99.90;;;;;;12372869;28;20414;-35
2024/01/01 22:33:29;;;;;;;129.45;121.43;;;5.20;99.90;;;;;;12391108;28;20053;-35
2024/01/01 22:39:31;;;;;;;131.30;123.45;;;5.10;99.90;;;;;;12381360;28;20490;-35
2024/01/01 22:45:32;;;;;;;127.57;119.88;;;5.20;99.90;;;;;;12377160;28;20047;-34
2024/01/01 22:51:34;;;;;;;135.18;127.03;;;5.20;99.90;;;;;;12366323;28;20496;-34
2024/01/01 22:57:36;;;;;;;136.13;127.72;;;5.10;99.90;;;;;;12369192;28;20043;-35
2024/01/01 23:03:38;;;;;;;132.45;124.13;;;5.10;99.90;;;;;;12373884;28;20059;-34
2024/01/01 23:09:42;;;;;;;133.23;125.28;;;5.00;99.90;;;;;;12371828;28;20177;-35
2024/01/01 23:15:44;;;;;;;131.77;124.15;;;5.10;99.90;;;;;;12371559;28;20443;-34
2024/01/01 23:21:46;;;;;;;131.13;123.22;;;5.00;99.90;;;;;;12367222;28;20129;-34
2024/01/01 23:27:48;;;;;;;128.02;120.60;;;5.10;99.90;;;;;;12387525;28;20074;-35
2024/01/01 23:33:50;;;;;;;133.18;125.40;;;5.10;99.90;;;;;;12393308;28;20047;-34
2024/01/01 23:40:15;;;;;;;130.98;123.60;;;5.10;99.90;;;;;;12382619;28;20042;-35
2024/01/01 23:46:16;;;;;;;134.85;126.47;;;5.10;99.90;;;;;;12379999;28;20055;-34
2024/01/01 23:52:18;;;;;;;133.88;125.90;;;5.20;99.90;;;;;;12402828;28;20062;-34
2024/01/01 23:58:21;;;;;;;136.95;128.90;;;5.20;99.90;;;;;;12386928;28;20591;-34
